createdAt,value
2023-11-12T00:01:36.608Z,97255.41
2023-11-12T00:06:42.193Z,97248.66
2023-11-12T00:11:47.437Z,97249.78
2023-11-12T00:16:49.901Z,97250.91
2023-11-12T00:21:52.113Z,97240.13
2023-11-12T00:26:54.118Z,97241.41
2023-11-12T00:31:57.551Z,97236.41
2023-11-12T00:36:59.632Z,97243.19
2023-11-12T00:42:01.484Z,97232.22
2023-11-12T00:47:03.589Z,97243.50
2023-11-12T00:52:09.466Z,97246.09
2023-11-12T00:57:11.784Z,97240.13
2023-11-12T01:02:17.366Z,97239.47
2023-11-12T01:07:20.523Z,97243.03
2023-11-12T01:12:24.576Z,97240.44
2023-11-12T01:17:26.611Z,97242.22
2023-11-12T01:22:28.811Z,97246.56
2023-11-12T01:27:30.873Z,97246.56
2023-11-12T01:32:34.552Z,97248.16
2023-11-12T01:37:36.734Z,97249.13
2023-11-12T01:42:39.485Z,97248.97
2023-11-12T01:47:45.758Z,97242.84
2023-11-12T01:52:49.379Z,97237.53
2023-11-12T01:57:54.313Z,97243.34
2023-11-12T02:02:57.675Z,97247.22
2023-11-12T02:08:02.186Z,97239.16
2023-11-12T02:13:08.661Z,97240.75
2023-11-12T02:18:11.379Z,97251.72
2023-11-12T02:23:16.590Z,97241.41
2023-11-12T02:28:20.800Z,97244.16
2023-11-12T02:33:28.873Z,97239.16
2023-11-12T02:38:32.597Z,97248.50
2023-11-12T02:43:35.681Z,97234.81
2023-11-12T02:49:09.807Z,97246.09
2023-11-12T02:54:11.723Z,97251.06
2023-11-12T02:59:13.698Z,97240.59
2023-11-12T03:04:16.159Z,97235.13
2023-11-12T03:09:18.261Z,97240.91
2023-11-12T03:14:20.490Z,97238.34
2023-11-12T03:19:23.130Z,97245.91
2023-11-12T03:24:25.432Z,97258.63
2023-11-12T03:29:27.772Z,97252.34
2023-11-12T03:34:29.669Z,97253.97
2023-11-12T03:39:31.732Z,97264.91
2023-11-12T03:44:33.717Z,97257.03
2023-11-12T03:49:36.706Z,97262.19
2023-11-12T03:54:39.110Z,97257.84
2023-11-12T03:59:41.474Z,97263.47
2023-11-12T04:04:44.686Z,97262.81
2023-11-12T04:09:46.781Z,97258.47
2023-11-12T04:14:49.024Z,97270.41
2023-11-12T04:19:51.936Z,97269.59
2023-11-12T04:24:54.577Z,97263.94
2023-11-12T04:29:56.887Z,97261.53
2023-11-12T04:34:59.164Z,97265.88
2023-11-12T04:40:01.451Z,97263.47
2023-11-12T04:45:04.267Z,97264.28
2023-11-12T04:50:06.987Z,97261.69
2023-11-12T04:55:09.156Z,97253.97
2023-11-12T05:00:13.965Z,97259.13
2023-11-12T05:05:18.134Z,97266.22
2023-11-12T05:10:20.393Z,97273.94
2023-11-12T05:15:22.419Z,97277.50
2023-11-12T05:20:26.019Z,97280.06
2023-11-12T05:25:28.913Z,97290.38
2023-11-12T05:30:31.104Z,97292.97
2023-11-12T05:35:33.056Z,97302.31
2023-11-12T05:40:35.152Z,97293.91
2023-11-12T05:45:37.429Z,97294.88
2023-11-12T05:50:39.862Z,97300.03
2023-11-12T05:55:41.880Z,97302.63
2023-11-12T06:00:44.477Z,97304.22
2023-11-12T06:05:46.644Z,97311.97
2023-11-12T06:10:50.293Z,97302.63
2023-11-12T06:15:52.683Z,97310.34
2023-11-12T06:20:54.926Z,97315.34
2023-11-12T06:25:57.500Z,97307.78
2023-11-12T06:30:59.692Z,97318.91
2023-11-12T06:36:02.930Z,97319.69
2023-11-12T06:41:05.049Z,97328.06
2023-11-12T06:46:08.829Z,97337.25
2023-11-12T06:51:21.041Z,97334.69
2023-11-12T06:56:24.531Z,97340.50
2023-11-12T07:01:48.619Z,97347.75
2023-11-12T07:07:01.327Z,97353.53
2023-11-12T07:12:11.334Z,97353.38
2023-11-12T07:17:14.100Z,97362.72
2023-11-12T07:22:16.148Z,97353.72
2023-11-12T07:27:18.162Z,97360.16
2023-11-12T07:32:22.637Z,97366.13
2023-11-12T07:37:24.734Z,97357.75
2023-11-12T07:42:26.771Z,97363.06
2023-11-12T07:47:29.048Z,97374.16
2023-11-12T07:52:32.355Z,97372.41
2023-11-12T07:57:34.893Z,97373.69
2023-11-12T08:02:38.495Z,97376.75
2023-11-12T08:07:42.232Z,97379.66
2023-11-12T08:12:44.544Z,97377.69
2023-11-12T08:17:48.770Z,97383.50
2023-11-12T08:22:51.016Z,97384.44
2023-11-12T08:27:53.250Z,97383.75
2023-11-12T08:32:55.660Z,97380.53
2023-11-12T08:38:00.924Z,97386.66
2023-11-12T08:43:03.428Z,97386.97
2023-11-12T08:48:06.089Z,97389.22
2023-11-12T08:53:08.796Z,97393.03
2023-11-12T08:58:11.056Z,97399.97
2023-11-12T09:03:13.726Z,97395.91
2023-11-12T09:08:17.474Z,97399.13
2023-11-12T09:13:19.635Z,97404.59
2023-11-12T09:18:22.231Z,97410.53
2023-11-12T09:23:24.399Z,97414.38
2023-11-12T09:28:26.688Z,97421.34
2023-11-12T09:33:29.136Z,97431.28
2023-11-12T09:38:35.153Z,97425.09
2023-11-12T09:43:38.045Z,97431.50
2023-11-12T09:48:41.524Z,97432.47
2023-11-12T09:53:48.702Z,97429.59
2023-11-12T09:58:51.128Z,97423.56
2023-11-12T10:03:53.412Z,97422.09
2023-11-12T10:08:55.685Z,97424.63
2023-11-12T10:13:58.038Z,97429.91
2023-11-12T10:19:15.642Z,97437.31
2023-11-12T10:24:18.472Z,97439.09
2023-11-12T10:29:25.109Z,97428.53
2023-11-12T10:34:28.994Z,97433.13
2023-11-12T10:39:42.694Z,97436.56
2023-11-12T10:44:46.207Z,97431.94
2023-11-12T10:49:49.418Z,97429.03
2023-11-12T10:54:52.726Z,97427.78
2023-11-12T10:59:56.433Z,97433.63
2023-11-12T11:05:01.198Z,97430.69
2023-11-12T11:10:04.838Z,97444.94
2023-11-12T11:15:44.404Z,97442.00
2023-11-12T11:21:18.601Z,97438.44
2023-11-12T11:26:35.882Z,97437.66
2023-11-12T11:31:40.243Z,97450.06
2023-11-12T11:36:58.229Z,97456.16
2023-11-12T11:42:02.626Z,97461.81
2023-11-12T11:47:17.699Z,97460.34
2023-11-12T11:52:22.641Z,97451.38
2023-11-12T11:57:29.116Z,97449.44
2023-11-12T12:02:46.201Z,97452.88
2023-11-12T12:08:00.414Z,97449.34
2023-11-12T12:13:02.414Z,97450.66
2023-11-12T12:18:25.452Z,97441.28
2023-11-12T12:23:28.452Z,97443.06
2023-11-12T12:28:32.015Z,97442.91
2023-11-12T12:33:34.366Z,97443.72
2023-11-12T12:38:37.975Z,97442.75
2023-11-12T12:43:49.266Z,97446.75
2023-11-12T12:48:56.028Z,97448.72
2023-11-12T12:53:59.004Z,97449.06
2023-11-12T12:59:00.913Z,97447.44
2023-11-12T13:04:03.953Z,97443.53
2023-11-12T13:09:18.567Z,97441.25
2023-11-12T13:14:22.145Z,97444.13
2023-11-12T13:19:26.163Z,97448.16
2023-11-12T13:24:29.980Z,97444.94
2023-11-12T13:29:32.139Z,97448.97
2023-11-12T13:34:34.189Z,97458.00
2023-11-12T13:39:36.334Z,97462.84
2023-11-12T13:44:38.446Z,97458.63
2023-11-12T13:49:40.709Z,97458.63
2023-11-12T13:54:43.639Z,97466.56
2023-11-12T13:59:45.992Z,97467.72
2023-11-12T14:04:48.068Z,97464.03
2023-11-12T14:09:50.242Z,97466.44
2023-11-12T14:14:52.853Z,97468.06
2023-11-12T14:19:56.849Z,97472.41
2023-11-12T14:25:00.809Z,97478.41
2023-11-12T14:30:09.668Z,97479.53
2023-11-12T14:35:11.686Z,97487.47
2023-11-12T14:40:16.030Z,97484.88
2023-11-12T14:45:26.126Z,97491.66
2023-11-12T14:50:34.290Z,97483.28
2023-11-12T14:55:38.323Z,97491.03
2023-11-12T15:00:41.348Z,97482.63
2023-11-12T15:05:44.008Z,97489.28
2023-11-12T15:10:46.363Z,97485.25
2023-11-12T15:15:48.722Z,97486.56
2023-11-12T15:21:07.867Z,97492.72
2023-11-12T15:26:15.513Z,97494.00
2023-11-12T15:31:20.778Z,97499.34
2023-11-12T15:36:23.451Z,97496.75
2023-11-12T15:41:25.985Z,97500.31
2023-11-12T15:46:28.638Z,97516.00
2023-11-12T15:51:31.233Z,97522.78
2023-11-12T15:56:33.844Z,97520.53
2023-11-12T16:01:36.802Z,97530.88
2023-11-12T16:06:39.182Z,97524.09
2023-11-12T16:11:41.771Z,97531.03
2023-11-12T16:16:45.788Z,97531.84
2023-11-12T16:21:49.484Z,97531.03
2023-11-12T16:26:55.560Z,97533.78
2023-11-12T16:32:11.100Z,97546.72
2023-11-12T16:37:13.596Z,97553.16
2023-11-12T16:42:17.979Z,97549.28
2023-11-12T16:47:24.905Z,97553.81
2023-11-12T16:52:29.769Z,97558.19
2023-11-12T16:57:32.067Z,97549.78
2023-11-12T17:02:36.994Z,97556.88
2023-11-12T17:07:39.570Z,97562.88
2023-11-12T17:12:43.642Z,97569.66
2023-11-12T17:17:49.610Z,97568.84
2023-11-12T17:23:19.089Z,97576.44
2023-11-12T17:28:21.495Z,97574.97
2023-11-12T17:33:27.720Z,97575.16
2023-11-12T17:38:30.054Z,97581.28
2023-11-12T17:43:32.541Z,97584.69
2023-11-12T17:48:34.781Z,97585.47
2023-11-12T17:53:37.907Z,97584.84
2023-11-12T17:58:40.841Z,97586.63
2023-11-12T18:03:44.494Z,97587.75
2023-11-12T18:08:47.079Z,97590.50
2023-11-12T18:13:49.086Z,97589.69
2023-11-12T18:18:51.298Z,97601.00
2023-11-12T18:23:53.305Z,97593.25
2023-11-12T18:28:55.348Z,97597.59
2023-11-12T18:33:57.293Z,97600.34
2023-11-12T18:38:59.602Z,97605.19
2023-11-12T18:44:05.710Z,97607.78
2023-11-12T18:49:07.610Z,97627.47
2023-11-12T18:54:09.724Z,97625.88
2023-11-12T18:59:13.010Z,97624.09
2023-11-12T19:04:16.736Z,97624.25
2023-11-12T19:09:19.123Z,97623.78
2023-11-12T19:14:21.147Z,97611.97
2023-11-12T19:19:26.141Z,97611.97
2023-11-12T19:24:29.494Z,97613.91
2023-11-12T19:29:31.548Z,97607.94
2023-11-12T19:34:35.746Z,97612.31
2023-11-12T19:39:40.154Z,97608.91
2023-11-12T19:44:45.185Z,97610.53
2023-11-12T19:49:47.065Z,97615.03
2023-11-12T19:54:49.678Z,97616.03
2023-11-12T19:59:51.806Z,97616.03
2023-11-12T20:04:53.683Z,97628.13
2023-11-12T20:09:56.818Z,97630.72
2023-11-12T20:15:02.709Z,97633.47
2023-11-12T20:20:05.449Z,97643.78
2023-11-12T20:25:08.886Z,97651.53
2023-11-12T20:30:11.419Z,97657.50
2023-11-12T20:35:13.844Z,97653.16
2023-11-12T20:40:16.841Z,97649.75
2023-11-12T20:45:20.642Z,97651.38
2023-11-12T20:50:24.536Z,97653.00
2023-11-12T20:55:26.948Z,97665.91
2023-11-12T21:00:29.835Z,97660.75
2023-11-12T21:05:35.815Z,97664.28
2023-11-12T21:10:37.846Z,97673.97
2023-11-12T21:15:42.109Z,97670.59
2023-11-12T21:20:45.771Z,97670.91
2023-11-12T21:25:48.324Z,97676.41
2023-11-12T21:30:50.653Z,97684.16
2023-11-12T21:35:55.241Z,97683.66
2023-11-12T21:40:57.515Z,97683.66
2023-11-12T21:46:00.172Z,97687.22
2023-11-12T21:51:02.400Z,97690.59
2023-11-12T21:56:05.662Z,97692.53
2023-11-12T22:01:12.576Z,97683.97
2023-11-12T22:06:14.763Z,97683.00
2023-11-12T22:11:16.892Z,97683.00
2023-11-12T22:16:19.626Z,97678.50
2023-11-12T22:21:21.756Z,97681.72
2023-11-12T22:26:24.117Z,97686.88
2023-11-12T22:31:26.548Z,97686.88
2023-11-12T22:36:32.409Z,97697.06
2023-11-12T22:41:34.766Z,97700.59
2023-11-12T22:46:37.046Z,97702.69
2023-11-12T22:51:39.269Z,97690.09
2023-11-12T22:56:41.806Z,97693.81
2023-11-12T23:01:44.269Z,97698.16
2023-11-12T23:06:48.590Z,97715.44
2023-11-12T23:11:50.983Z,97718.03
2023-11-12T23:16:57.680Z,97725.78
2023-11-12T23:22:04.553Z,97735.94
2023-11-12T23:27:06.725Z,97740.31
2023-11-12T23:32:10.005Z,97742.22
2023-11-12T23:37:14.657Z,97736.25
2023-11-12T23:42:18.332Z,97737.88
2023-11-12T23:47:21.220Z,97743.34
2023-11-12T23:52:23.529Z,97750.28
2023-11-12T23:57:25.548Z,97753.69
